createdAt,value
2022-12-08T00:05:06.804Z,2.64
2022-12-08T00:10:48.364Z,2.71
2022-12-08T00:16:10.600Z,2.74
2022-12-08T00:21:32.575Z,2.78
2022-12-08T00:26:54.799Z,2.86
2022-12-08T00:32:17.117Z,2.85
2022-12-08T00:37:39.059Z,2.87
2022-12-08T00:43:00.690Z,2.93
2022-12-08T00:48:23.017Z,2.99
2022-12-08T00:53:45.255Z,3.03
2022-12-08T00:59:08.183Z,3.07
2022-12-08T01:04:30.413Z,3.08
2022-12-08T01:09:53.044Z,3.10
2022-12-08T01:15:15.775Z,3.15
2022-12-08T01:20:37.909Z,3.18
2022-12-08T01:26:07.700Z,3.21
2022-12-08T01:31:29.458Z,3.23
2022-12-08T01:36:51.491Z,3.24
2022-12-08T01:42:22.061Z,3.27
2022-12-08T01:47:47.783Z,3.29
2022-12-08T01:53:22.196Z,3.26
2022-12-08T01:58:48.641Z,3.21
2022-12-08T02:04:10.872Z,3.19
2022-12-08T02:09:33.104Z,3.23
2022-12-08T02:14:55.384Z,3.28
2022-12-08T02:20:31.737Z,3.18
2022-12-08T02:26:24.511Z,3.09
2022-12-08T02:32:24.315Z,3.11
2022-12-08T02:37:50.172Z,3.01
2022-12-08T02:43:35.989Z,2.93
2022-12-08T02:48:59.527Z,2.89
2022-12-08T02:54:21.540Z,2.87
2022-12-08T02:59:52.705Z,2.86
2022-12-08T03:05:26.431Z,2.82
2022-12-08T03:11:09.973Z,2.82
2022-12-08T03:16:34.290Z,2.83
2022-12-08T03:22:03.451Z,2.83
2022-12-08T03:27:28.236Z,2.85
2022-12-08T03:32:56.929Z,2.88
2022-12-08T03:38:18.795Z,2.86
2022-12-08T03:43:40.614Z,2.89
2022-12-08T03:49:02.643Z,2.89
2022-12-08T03:54:24.677Z,2.94
2022-12-08T03:59:46.597Z,2.93
2022-12-08T04:05:08.833Z,2.93
2022-12-08T04:10:31.264Z,2.94
2022-12-08T04:15:53.240Z,2.95
2022-12-08T04:21:15.331Z,2.89
2022-12-08T04:26:37.356Z,2.86
2022-12-08T04:31:59.172Z,2.86
2022-12-08T04:37:21.208Z,2.83
2022-12-08T04:42:43.342Z,2.80
2022-12-08T04:48:05.705Z,2.81
2022-12-08T04:53:28.103Z,2.75
2022-12-08T04:58:50.032Z,2.77
2022-12-08T05:04:11.875Z,2.71
2022-12-08T05:09:33.891Z,2.66
2022-12-08T05:14:55.522Z,2.70
2022-12-08T05:20:17.649Z,2.63
2022-12-08T05:25:39.579Z,2.60
2022-12-08T05:31:01.622Z,2.74
2022-12-08T05:36:24.039Z,2.90
2022-12-08T05:41:45.620Z,3.00
2022-12-08T05:47:07.708Z,2.95
2022-12-08T05:52:29.828Z,3.01
2022-12-08T05:57:51.760Z,2.92
2022-12-08T06:03:14.980Z,2.88
2022-12-08T06:08:36.924Z,2.87
2022-12-08T06:14:02.201Z,2.91
2022-12-08T06:19:23.896Z,2.92
2022-12-08T06:24:46.019Z,2.95
2022-12-08T06:30:08.756Z,3.01
2022-12-08T06:35:30.961Z,3.01
2022-12-08T06:40:59.135Z,2.96
2022-12-08T06:46:21.196Z,2.95
2022-12-08T06:51:43.128Z,2.96
2022-12-08T06:57:05.428Z,3.00
2022-12-08T07:02:27.375Z,2.92
2022-12-08T07:07:49.143Z,2.95
2022-12-08T07:13:11.012Z,2.98
2022-12-08T07:18:33.349Z,3.00
2022-12-08T07:23:57.854Z,3.07
2022-12-08T07:29:25.961Z,3.03
2022-12-08T07:34:47.960Z,3.10
2022-12-08T07:40:10.592Z,3.10
2022-12-08T07:45:32.640Z,3.09
2022-12-08T07:51:01.523Z,3.10
2022-12-08T07:56:23.907Z,3.08
2022-12-08T08:01:45.796Z,3.08
2022-12-08T08:07:07.983Z,3.07
2022-12-08T08:12:31.842Z,3.10
2022-12-08T08:17:54.347Z,3.12
2022-12-08T08:23:16.368Z,3.22
2022-12-08T08:28:38.494Z,3.37
2022-12-08T08:34:05.241Z,3.51
2022-12-08T08:39:27.371Z,3.62
2022-12-08T08:44:49.098Z,3.73
2022-12-08T08:50:11.039Z,3.83
2022-12-08T08:55:33.058Z,3.84
2022-12-08T09:00:55.088Z,3.95
2022-12-08T09:06:17.336Z,4.06
2022-12-08T09:11:39.352Z,4.16
2022-12-08T09:17:01.280Z,4.30
2022-12-08T09:22:23.910Z,4.35
2022-12-08T09:27:45.792Z,4.43
2022-12-08T09:33:07.551Z,4.46
2022-12-08T09:38:29.498Z,4.51
2022-12-08T09:43:54.235Z,4.59
2022-12-08T09:49:19.320Z,4.67
2022-12-08T09:54:41.307Z,4.73
2022-12-08T10:00:06.266Z,4.75
2022-12-08T10:05:30.247Z,4.79
2022-12-08T10:10:59.229Z,4.88
2022-12-08T10:16:34.265Z,4.87
2022-12-08T10:21:57.344Z,4.85
2022-12-08T10:27:19.763Z,4.84
2022-12-08T10:32:45.319Z,4.84
2022-12-08T10:38:23.805Z,4.86
2022-12-08T10:43:51.257Z,4.89
2022-12-08T10:49:26.259Z,4.95
2022-12-08T10:54:52.597Z,4.98
2022-12-08T11:00:18.783Z,5.00
2022-12-08T11:05:42.051Z,5.04
2022-12-08T11:11:03.880Z,4.99
2022-12-08T11:16:25.831Z,4.84
2022-12-08T11:21:48.391Z,4.76
2022-12-08T11:27:10.522Z,4.70
2022-12-08T11:32:32.572Z,4.68
2022-12-08T11:38:13.475Z,4.68
2022-12-08T11:43:57.910Z,4.75
2022-12-08T11:49:20.751Z,4.85
2022-12-08T11:54:50.878Z,4.98
2022-12-08T12:00:25.570Z,5.01
2022-12-08T12:06:18.573Z,4.98
2022-12-08T12:12:16.883Z,4.87
2022-12-08T12:17:50.134Z,4.80
2022-12-08T12:23:17.485Z,4.79
2022-12-08T12:28:50.009Z,4.69
2022-12-08T12:34:18.607Z,4.47
2022-12-08T12:39:52.873Z,4.38
2022-12-08T12:45:17.419Z,4.32
2022-12-08T12:50:47.653Z,4.21
2022-12-08T12:56:12.712Z,4.01
2022-12-08T13:01:49.225Z,3.94
2022-12-08T13:07:21.932Z,3.90
2022-12-08T13:12:44.827Z,3.81
2022-12-08T13:18:08.059Z,3.78
2022-12-08T13:23:43.466Z,3.73
2022-12-08T13:29:21.788Z,3.73
2022-12-08T13:34:49.237Z,3.65
2022-12-08T13:40:28.328Z,3.52
2022-12-08T13:57:29.931Z,3.46
2022-12-08T14:02:52.797Z,3.45
2022-12-08T14:08:57.019Z,3.43
2022-12-08T14:14:54.045Z,3.42
2022-12-08T14:20:12.103Z,3.45
2022-12-08T14:25:35.625Z,3.37
2022-12-08T14:30:57.890Z,3.31
2022-12-08T14:36:21.144Z,3.34
2022-12-08T14:42:01.292Z,3.34
2022-12-08T14:47:23.011Z,3.32
2022-12-08T14:52:47.551Z,3.20
2022-12-08T14:58:21.108Z,3.29
2022-12-08T15:03:48.858Z,3.34
2022-12-08T15:09:35.287Z,3.45
2022-12-08T15:15:12.070Z,3.55
2022-12-08T15:20:41.430Z,3.48
2022-12-08T15:26:04.759Z,3.41
2022-12-08T15:31:26.588Z,3.32
2022-12-08T15:36:50.322Z,3.20
2022-12-08T15:42:14.939Z,3.14
2022-12-08T15:47:36.891Z,3.08
2022-12-08T15:52:59.137Z,2.92
2022-12-08T16:04:59.934Z,2.91
2022-12-08T16:09:50.053Z,2.88
2022-12-08T16:27:42.609Z,2.93
2022-12-08T16:32:19.672Z,2.99
2022-12-08T16:37:42.075Z,3.01
2022-12-08T16:43:04.161Z,3.10
2022-12-08T16:48:26.190Z,3.17
2022-12-08T16:53:47.920Z,3.23
2022-12-08T16:59:10.055Z,3.30
2022-12-08T17:04:32.484Z,3.41
2022-12-08T17:09:54.409Z,3.54
2022-12-08T17:15:19.353Z,3.62
2022-12-08T17:20:41.344Z,3.65
2022-12-08T17:26:03.941Z,3.64
2022-12-08T17:31:29.568Z,3.60
2022-12-08T17:36:52.692Z,3.60
2022-12-08T17:42:15.028Z,3.61
2022-12-08T17:47:37.348Z,3.65
2022-12-08T17:52:59.582Z,3.65
2022-12-08T17:58:23.017Z,3.59
2022-12-08T18:03:44.742Z,3.58
2022-12-08T18:09:07.948Z,3.58
2022-12-08T18:14:30.082Z,3.69
2022-12-08T18:19:52.238Z,3.77
2022-12-08T18:25:15.373Z,3.74
2022-12-08T18:30:40.100Z,3.73
2022-12-08T18:36:06.998Z,3.86
2022-12-08T18:41:28.885Z,4.03
2022-12-08T18:46:51.517Z,4.13
2022-12-08T18:52:13.547Z,4.22
2022-12-08T18:57:39.434Z,4.32
2022-12-08T19:03:01.796Z,4.39
2022-12-08T19:08:29.668Z,4.25
2022-12-08T19:13:54.209Z,4.16
2022-12-08T19:19:16.343Z,4.11
2022-12-08T19:24:38.314Z,4.07
2022-12-08T19:30:00.301Z,4.10
2022-12-08T19:35:22.171Z,4.10
2022-12-08T19:41:18.077Z,4.20
2022-12-08T19:46:40.662Z,4.29
2022-12-08T19:52:03.306Z,4.36
2022-12-08T19:57:25.169Z,4.41
2022-12-08T20:02:48.167Z,4.43
2022-12-08T20:08:10.515Z,4.40
2022-12-08T20:13:41.696Z,4.44
2022-12-08T20:19:03.991Z,4.43
2022-12-08T20:24:25.965Z,4.50
2022-12-08T20:29:48.304Z,4.57
2022-12-08T20:35:10.261Z,4.59
2022-12-08T20:40:32.147Z,4.65
2022-12-08T20:45:53.894Z,4.60
2022-12-08T20:51:18.475Z,4.58
2022-12-08T20:56:46.609Z,4.49
2022-12-08T21:02:11.154Z,4.39
2022-12-08T21:07:34.284Z,4.27
2022-12-08T21:12:56.178Z,4.28
2022-12-08T21:18:18.623Z,4.22
2022-12-08T21:23:41.759Z,4.22
2022-12-08T21:29:04.586Z,4.22
2022-12-08T21:34:31.767Z,4.14
2022-12-08T21:39:53.851Z,4.03
2022-12-08T21:45:18.445Z,4.10
2022-12-08T21:50:40.509Z,4.14
2022-12-08T21:56:02.739Z,4.10
2022-12-08T22:01:24.812Z,4.04
2022-12-08T22:06:47.749Z,4.00
2022-12-08T22:12:12.222Z,3.97
2022-12-08T22:17:39.812Z,3.89
2022-12-08T22:23:02.303Z,3.93
2022-12-08T22:28:25.694Z,4.00
2022-12-08T22:33:48.939Z,4.00
2022-12-08T22:39:11.017Z,3.97
2022-12-08T22:44:33.048Z,4.04
2022-12-08T22:49:54.876Z,4.14
2022-12-08T22:55:17.146Z,4.16
2022-12-08T23:00:39.680Z,4.19
2022-12-08T23:06:02.264Z,4.20
2022-12-08T23:11:29.278Z,4.09
2022-12-08T23:16:51.286Z,4.11
2022-12-08T23:22:13.081Z,4.17
2022-12-08T23:27:36.074Z,4.20
2022-12-08T23:32:58.360Z,4.23
2022-12-08T23:38:20.084Z,4.22
2022-12-08T23:43:50.296Z,4.13
2022-12-08T23:49:12.425Z,4.11
2022-12-08T23:54:34.238Z,4.14
2022-12-08T23:59:56.230Z,4.18
